createdAt,value
2019-02-26T00:01:46.180Z,13.60
2019-02-26T00:03:47.136Z,12.43
2019-02-26T00:05:52.137Z,12.80
2019-02-26T00:07:57.866Z,12.03
2019-02-26T00:10:04.425Z,13.57
2019-02-26T00:12:07.385Z,12.23
2019-02-26T00:14:15.558Z,13.87
2019-02-26T00:16:18.371Z,14.07
2019-02-26T00:18:23.539Z,13.37
2019-02-26T00:20:30.946Z,14.67
2019-02-26T00:22:34.385Z,12.47
2019-02-26T00:24:39.837Z,13.30
2019-02-26T00:26:45.134Z,11.67
2019-02-26T00:28:49.153Z,13.00
2019-02-26T00:30:54.978Z,13.60
2019-02-26T00:33:00.039Z,13.93
2019-02-26T00:35:04.337Z,13.03
2019-02-26T00:37:08.468Z,12.13
2019-02-26T00:39:12.626Z,13.27
2019-02-26T00:41:16.442Z,13.80
2019-02-26T00:43:23.345Z,12.80
2019-02-26T00:45:27.225Z,12.37
2019-02-26T00:47:33.849Z,13.13
2019-02-26T00:49:36.868Z,12.60
2019-02-26T00:51:44.301Z,13.40
2019-02-26T00:53:48.871Z,13.50
2019-02-26T00:55:54.327Z,12.70
2019-02-26T00:57:59.162Z,12.77
2019-02-26T01:00:03.465Z,14.37
2019-02-26T01:02:08.288Z,13.87
2019-02-26T01:04:12.050Z,12.50
2019-02-26T01:06:15.862Z,13.90
2019-02-26T01:08:19.913Z,12.87
2019-02-26T01:10:24.166Z,12.33
2019-02-26T01:12:28.000Z,12.87
2019-02-26T01:14:31.898Z,12.53
2019-02-26T01:16:37.132Z,12.97
2019-02-26T01:18:42.177Z,13.03
2019-02-26T01:20:50.299Z,12.60
2019-02-26T01:22:52.329Z,12.20
2019-02-26T01:24:56.731Z,13.00
2019-02-26T01:27:01.702Z,12.37
2019-02-26T01:29:05.574Z,12.80
2019-02-26T01:31:09.429Z,13.77
2019-02-26T01:33:13.266Z,12.20
2019-02-26T01:35:17.060Z,12.40
2019-02-26T01:37:20.958Z,11.93
2019-02-26T01:39:24.859Z,11.40
2019-02-26T01:41:28.726Z,11.60
2019-02-26T01:43:32.550Z,12.07
2019-02-26T01:45:36.426Z,12.07
2019-02-26T01:47:40.874Z,11.93
2019-02-26T01:49:46.439Z,11.43
2019-02-26T01:51:51.788Z,12.80
2019-02-26T01:53:57.087Z,12.73
2019-02-26T01:56:04.519Z,12.23
2019-02-26T01:58:06.677Z,13.50
2019-02-26T02:00:20.369Z,12.20
2019-02-26T02:02:25.382Z,10.97
2019-02-26T02:04:29.766Z,11.23
2019-02-26T02:06:34.854Z,12.53
2019-02-26T02:08:41.630Z,13.13
2019-02-26T02:10:44.734Z,12.07
2019-02-26T02:12:48.590Z,11.87
2019-02-26T02:14:52.485Z,11.43
2019-02-26T02:16:56.541Z,12.13
2019-02-26T02:19:00.452Z,11.53
2019-02-26T02:21:04.332Z,12.20
2019-02-26T02:23:08.276Z,12.53
2019-02-26T02:25:12.480Z,13.43
2019-02-26T02:27:19.490Z,12.67
2019-02-26T02:29:24.055Z,12.50
2019-02-26T02:31:31.048Z,12.93
2019-02-26T02:33:34.937Z,12.50
2019-02-26T02:35:38.454Z,11.90
2019-02-26T02:37:42.334Z,12.33
2019-02-26T02:39:46.231Z,13.07
2019-02-26T02:41:51.749Z,12.80
2019-02-26T02:43:55.658Z,14.13
2019-02-26T02:46:06.164Z,13.53
2019-02-26T02:48:11.753Z,12.80
2019-02-26T02:50:18.222Z,12.40
2019-02-26T02:52:21.670Z,12.87
2019-02-26T02:54:26.136Z,13.07
2019-02-26T02:56:33.223Z,11.43
2019-02-26T02:58:38.442Z,12.13
2019-02-26T03:00:42.222Z,10.90
2019-02-26T03:02:49.426Z,11.50
2019-02-26T03:04:51.609Z,11.17
2019-02-26T03:06:57.500Z,11.93
2019-02-26T03:09:01.054Z,11.73
2019-02-26T03:11:04.941Z,13.00
2019-02-26T03:13:08.799Z,11.60
2019-02-26T03:15:18.594Z,12.93
2019-02-26T03:17:22.458Z,12.40
2019-02-26T03:19:26.360Z,13.77
2019-02-26T03:21:30.632Z,13.93
2019-02-26T03:23:37.980Z,13.63
2019-02-26T03:25:41.414Z,13.73
2019-02-26T03:27:45.994Z,13.47
2019-02-26T03:29:50.425Z,13.30
2019-02-26T03:31:55.616Z,12.13
2019-02-26T03:34:04.790Z,12.57
2019-02-26T03:36:06.165Z,12.93
2019-02-26T03:38:10.779Z,11.63
2019-02-26T03:40:15.041Z,11.73
2019-02-26T03:42:21.130Z,13.13
2019-02-26T03:44:24.449Z,13.17
2019-02-26T03:46:28.320Z,13.40
2019-02-26T03:48:32.229Z,14.07
2019-02-26T03:52:53.636Z,13.87
2019-02-26T03:54:57.816Z,14.27
2019-02-26T03:57:01.845Z,15.43
2019-02-26T03:59:06.740Z,15.47
2019-02-26T04:01:13.651Z,13.77
2019-02-26T04:03:17.621Z,14.30
2019-02-26T04:05:21.625Z,14.63
2019-02-26T04:07:27.855Z,14.20
2019-02-26T04:09:30.985Z,14.63
2019-02-26T04:11:34.956Z,14.67
2019-02-26T04:13:38.702Z,13.33
2019-02-26T04:15:42.533Z,14.17
2019-02-26T04:17:46.415Z,13.70
2019-02-26T04:19:50.278Z,15.37
2019-02-26T04:22:26.357Z,14.13
2019-02-26T04:24:33.344Z,15.20
2019-02-26T04:27:03.102Z,13.03
2019-02-26T04:29:18.866Z,14.73
2019-02-26T04:31:34.894Z,12.70
2019-02-26T04:34:11.988Z,13.80
2019-02-26T04:36:24.326Z,14.17
2019-02-26T04:38:48.317Z,14.23
2019-02-26T04:41:00.204Z,13.50
2019-02-26T04:43:16.775Z,13.77
2019-02-26T04:45:35.573Z,13.90
2019-02-26T04:47:49.582Z,13.73
2019-02-26T04:49:54.403Z,13.13
2019-02-26T04:51:59.027Z,13.33
2019-02-26T04:54:02.846Z,12.90
2019-02-26T04:56:11.965Z,13.93
2019-02-26T04:58:14.960Z,13.93
2019-02-26T05:00:17.763Z,12.83
2019-02-26T05:02:21.599Z,12.33
2019-02-26T05:04:28.022Z,13.60
2019-02-26T05:06:31.470Z,14.13
2019-02-26T05:08:37.666Z,14.97
2019-02-26T05:10:40.825Z,13.17
2019-02-26T05:12:44.666Z,14.23
2019-02-26T05:14:48.502Z,15.30
2019-02-26T05:16:52.421Z,13.27
2019-02-26T05:18:58.471Z,15.37
2019-02-26T05:21:04.551Z,14.53
2019-02-26T05:23:07.108Z,14.20
2019-02-26T05:25:14.765Z,14.97
2019-02-26T05:27:19.800Z,15.87
2019-02-26T05:29:22.906Z,16.27
2019-02-26T05:31:26.841Z,15.57
2019-02-26T05:33:32.706Z,14.40
2019-02-26T05:35:37.836Z,14.70
2019-02-26T05:37:41.668Z,15.03
2019-02-26T05:39:46.868Z,15.53
2019-02-26T05:41:54.579Z,15.43
2019-02-26T05:43:58.271Z,15.13
2019-02-26T05:46:04.047Z,14.77
2019-02-26T05:48:07.481Z,15.20
2019-02-26T05:50:16.195Z,14.70
2019-02-26T05:52:16.865Z,15.40
2019-02-26T05:54:21.635Z,15.40
2019-02-26T05:56:26.294Z,15.50
2019-02-26T05:58:30.085Z,15.47
2019-02-26T06:00:33.931Z,16.03
2019-02-26T06:02:40.129Z,15.43
2019-02-26T06:04:44.539Z,15.57
2019-02-26T06:06:51.083Z,15.10
2019-02-26T06:08:55.296Z,15.07
2019-02-26T06:10:59.835Z,14.97
2019-02-26T06:13:04.993Z,15.37
2019-02-26T06:15:09.218Z,15.40
2019-02-26T06:17:14.931Z,15.17
2019-02-26T06:19:20.366Z,15.30
2019-02-26T06:21:25.931Z,13.97
2019-02-26T06:23:32.737Z,14.97
2019-02-26T06:25:35.135Z,13.77
2019-02-26T06:27:38.973Z,13.63
2019-02-26T06:29:42.850Z,15.90
2019-02-26T06:31:47.685Z,14.40
2019-02-26T06:33:52.234Z,14.43
2019-02-26T06:35:57.067Z,14.43
2019-02-26T06:38:02.075Z,14.43
2019-02-26T06:40:09.795Z,13.23
2019-02-26T06:42:14.519Z,14.73
2019-02-26T06:44:18.438Z,14.33
2019-02-26T06:46:22.353Z,14.03
2019-02-26T06:48:27.533Z,13.50
2019-02-26T06:50:32.200Z,13.70
2019-02-26T06:52:38.200Z,13.97
2019-02-26T06:54:47.725Z,13.87
2019-02-26T06:56:49.033Z,14.27
2019-02-26T06:58:53.593Z,14.23
2019-02-26T07:00:57.765Z,13.57
2019-02-26T07:03:02.738Z,13.30
2019-02-26T07:05:09.456Z,14.30
2019-02-26T07:07:14.434Z,14.10
2019-02-26T07:09:20.377Z,13.27
2019-02-26T07:11:25.763Z,13.20
2019-02-26T07:13:29.501Z,13.40
2019-02-26T07:15:33.379Z,14.30
2019-02-26T07:17:38.443Z,14.33
2019-02-26T07:19:42.873Z,14.10
2019-02-26T07:21:48.137Z,14.43
2019-02-26T07:23:54.058Z,15.63
2019-02-26T07:25:57.851Z,14.77
2019-02-26T07:28:02.946Z,14.73
2019-02-26T07:30:09.906Z,14.87
2019-02-26T07:32:14.822Z,13.63
2019-02-26T07:34:20.613Z,16.30
2019-02-26T07:36:27.645Z,14.63
2019-02-26T07:38:30.695Z,15.47
2019-02-26T07:40:35.917Z,15.20
2019-02-26T07:42:41.518Z,15.50
2019-02-26T07:44:45.610Z,16.77
2019-02-26T07:46:49.537Z,17.53
2019-02-26T07:48:54.036Z,17.43
2019-02-26T07:50:58.986Z,17.60
2019-02-26T07:53:02.899Z,16.90
2019-02-26T07:55:09.229Z,17.20
2019-02-26T07:57:15.647Z,16.10
2019-02-26T07:59:27.385Z,16.90
2019-02-26T08:01:25.146Z,16.47
2019-02-26T08:03:29.420Z,15.93
2019-02-26T08:05:33.506Z,16.37
2019-02-26T08:07:37.431Z,15.97
2019-02-26T08:09:41.311Z,18.60
2019-02-26T08:11:46.911Z,17.60
2019-02-26T08:13:51.749Z,17.97
2019-02-26T08:15:58.194Z,19.37
2019-02-26T08:18:03.456Z,19.67
2019-02-26T08:20:12.322Z,18.87
2019-02-26T08:22:15.713Z,21.33
2019-02-26T08:24:24.438Z,19.70
2019-02-26T08:26:26.763Z,19.43
2019-02-26T08:28:30.784Z,19.27
2019-02-26T08:30:34.678Z,20.23
2019-02-26T08:32:39.174Z,19.50
2019-02-26T08:34:43.154Z,18.00
2019-02-26T08:36:47.056Z,11.13
2019-02-26T08:38:52.054Z,12.00
2019-02-26T08:40:56.079Z,8.43
2019-02-26T08:42:59.968Z,10.57
2019-02-26T08:45:04.695Z,16.87
2019-02-26T08:47:11.067Z,19.47
2019-02-26T08:49:15.578Z,17.20
2019-02-26T08:51:21.478Z,19.37
2019-02-26T08:53:26.636Z,13.60
2019-02-26T08:55:30.667Z,15.93
2019-02-26T08:57:34.579Z,22.27
2019-02-26T08:59:38.445Z,18.47
2019-02-26T09:01:42.326Z,17.17
2019-02-26T09:03:48.043Z,14.83
2019-02-26T09:05:53.827Z,11.60
2019-02-26T09:07:57.246Z,15.10
2019-02-26T09:10:01.127Z,17.37
2019-02-26T09:12:05.036Z,11.43
2019-02-26T09:14:11.139Z,13.97
2019-02-26T09:16:14.470Z,13.90
2019-02-26T09:18:20.302Z,11.17
2019-02-26T09:20:23.859Z,12.23
2019-02-26T09:22:28.477Z,10.13
2019-02-26T09:24:32.583Z,10.57
2019-02-26T09:26:36.469Z,9.77
2019-02-26T09:28:40.334Z,8.73
2019-02-26T09:30:44.199Z,7.67
2019-02-26T09:32:48.150Z,9.03
2019-02-26T09:34:52.485Z,9.17
2019-02-26T09:36:58.235Z,13.93
2019-02-26T09:39:03.251Z,16.27
2019-02-26T09:41:10.043Z,16.47
2019-02-26T09:43:16.823Z,16.63
2019-02-26T09:45:25.404Z,13.23
2019-02-26T09:47:32.888Z,10.27
2019-02-26T09:49:35.725Z,12.50
2019-02-26T09:51:40.083Z,16.90
2019-02-26T09:53:43.986Z,14.40
2019-02-26T09:55:47.916Z,15.07
2019-02-26T09:57:51.756Z,16.83
2019-02-26T09:59:58.181Z,22.60
2019-02-26T10:02:03.182Z,21.67
2019-02-26T10:04:06.682Z,21.10
2019-02-26T10:06:11.354Z,19.50
2019-02-26T10:08:17.333Z,20.10
2019-02-26T10:10:22.526Z,21.53
2019-02-26T10:12:28.000Z,20.17
2019-02-26T10:14:33.508Z,21.07
2019-02-26T10:16:37.465Z,22.67
2019-02-26T10:18:41.441Z,23.10
2019-02-26T10:20:47.645Z,23.40
2019-02-26T10:22:52.639Z,22.43
2019-02-26T10:24:56.378Z,22.33
2019-02-26T10:27:02.986Z,23.87
2019-02-26T10:29:07.853Z,20.33
2019-02-26T10:31:11.364Z,21.50
2019-02-26T10:33:17.640Z,22.27
2019-02-26T10:35:33.350Z,20.00
2019-02-26T10:37:33.383Z,22.03
2019-02-26T10:39:36.391Z,22.20
2019-02-26T10:41:42.249Z,17.47
2019-02-26T10:43:45.774Z,19.70
2019-02-26T10:45:50.526Z,19.90
2019-02-26T10:47:56.712Z,19.40
2019-02-26T10:50:00.756Z,18.77
2019-02-26T10:52:04.784Z,20.20
2019-02-26T10:54:12.229Z,19.53
2019-02-26T10:56:14.185Z,20.37
2019-02-26T10:58:18.153Z,20.53
2019-02-26T11:00:25.992Z,19.17
2019-02-26T11:02:30.645Z,18.20
2019-02-26T11:04:35.859Z,18.03
2019-02-26T11:06:43.740Z,16.43
2019-02-26T11:08:47.527Z,15.73
2019-02-26T11:10:52.353Z,14.13
2019-02-26T11:12:59.411Z,12.27
2019-02-26T11:15:04.331Z,15.77
2019-02-26T11:17:07.721Z,17.50
2019-02-26T11:19:12.358Z,19.10
2019-02-26T11:21:16.390Z,17.40
2019-02-26T11:23:30.072Z,15.00
2019-02-26T11:25:27.426Z,13.53
2019-02-26T11:27:31.333Z,18.07
2019-02-26T11:29:36.518Z,18.17
2019-02-26T11:31:41.850Z,18.10
2019-02-26T11:33:48.063Z,17.77
2019-02-26T11:35:51.876Z,16.13
2019-02-26T11:37:57.823Z,15.90
2019-02-26T11:40:02.770Z,15.40
2019-02-26T11:42:06.850Z,15.30
2019-02-26T11:44:12.833Z,16.53
2019-02-26T11:46:16.239Z,15.13
2019-02-26T11:48:21.282Z,15.80
2019-02-26T11:50:28.046Z,14.27
2019-02-26T11:52:33.790Z,15.07
2019-02-26T11:54:39.710Z,11.13
2019-02-26T11:56:44.559Z,11.10
2019-02-26T11:58:48.452Z,12.20
2019-02-26T12:00:57.372Z,13.57
2019-02-26T12:03:01.468Z,15.03
2019-02-26T12:05:08.216Z,13.35
2019-02-26T12:07:12.388Z,15.07
2019-02-26T12:09:16.322Z,12.57
2019-02-26T12:11:20.950Z,13.73
2019-02-26T12:13:27.662Z,14.37
2019-02-26T12:15:33.467Z,12.73
2019-02-26T12:17:38.189Z,12.50
2019-02-26T12:19:42.116Z,14.97
2019-02-26T12:21:49.202Z,13.73
2019-02-26T12:23:51.510Z,12.93
2019-02-26T12:25:56.418Z,15.87
2019-02-26T12:28:02.900Z,13.70
2019-02-26T12:30:10.092Z,12.60
2019-02-26T12:32:16.972Z,13.23
2019-02-26T12:34:21.436Z,11.20
2019-02-26T12:36:26.625Z,15.10
2019-02-26T12:38:31.739Z,14.13
2019-02-26T12:40:37.885Z,12.23
2019-02-26T12:42:41.112Z,12.63
2019-02-26T12:44:45.600Z,14.07
2019-02-26T12:46:51.080Z,12.40
2019-02-26T12:48:55.277Z,12.97
2019-02-26T12:51:01.419Z,12.77
2019-02-26T12:53:05.128Z,13.33
2019-02-26T12:55:10.467Z,13.60
2019-02-26T12:57:16.991Z,12.63
2019-02-26T12:59:20.008Z,13.27
2019-02-26T13:01:24.027Z,11.47
2019-02-26T13:03:27.886Z,11.17
2019-02-26T13:05:31.773Z,12.43
2019-02-26T13:07:35.657Z,12.90
2019-02-26T13:09:46.903Z,12.07
2019-02-26T13:12:00.607Z,12.83
2019-02-26T13:13:53.257Z,11.50
2019-02-26T13:15:56.165Z,13.20
2019-02-26T13:18:00.105Z,12.20
2019-02-26T13:20:10.820Z,12.80
2019-02-26T13:22:16.904Z,12.93
2019-02-26T13:24:17.783Z,14.17
2019-02-26T13:26:22.739Z,12.00
2019-02-26T13:28:29.603Z,12.27
2019-02-26T13:30:32.414Z,11.23
2019-02-26T13:32:55.427Z,10.07
2019-02-26T13:34:42.492Z,9.83
2019-02-26T13:36:52.175Z,9.27
2019-02-26T13:38:51.901Z,10.03
2019-02-26T13:41:02.326Z,9.63
2019-02-26T13:45:08.538Z,10.00
2019-02-26T13:47:12.449Z,9.87
2019-02-26T13:49:16.347Z,11.13
2019-02-26T13:51:20.256Z,11.97
2019-02-26T13:53:24.170Z,11.37
2019-02-26T13:55:28.114Z,10.83
2019-02-26T13:57:31.975Z,10.80
2019-02-26T13:59:36.023Z,11.67
2019-02-26T14:01:40.004Z,11.50
2019-02-26T14:03:43.894Z,11.20
2019-02-26T14:05:47.857Z,11.20
2019-02-26T14:07:51.797Z,11.37
2019-02-26T14:09:55.689Z,10.93
2019-02-26T14:11:59.573Z,10.47
2019-02-26T14:14:03.577Z,10.53
2019-02-26T14:16:08.865Z,12.10
2019-02-26T14:18:13.332Z,12.53
2019-02-26T14:20:17.325Z,11.70
2019-02-26T14:22:21.276Z,10.93
2019-02-26T14:24:25.325Z,11.87
2019-02-26T14:26:29.438Z,11.00
2019-02-26T14:28:33.345Z,10.50
2019-02-26T14:30:37.206Z,11.50
2019-02-26T14:32:41.117Z,10.77
2019-02-26T14:34:44.994Z,11.03
2019-02-26T14:36:48.903Z,10.60
2019-02-26T14:38:52.843Z,10.70
2019-02-26T14:40:56.686Z,10.70
2019-02-26T14:43:00.592Z,11.80
2019-02-26T14:45:06.504Z,12.50
2019-02-26T14:47:10.362Z,12.20
2019-02-26T14:49:14.302Z,10.73
2019-02-26T14:51:18.159Z,9.27
2019-02-26T14:53:22.118Z,10.40
2019-02-26T14:55:25.982Z,10.53
2019-02-26T14:57:29.880Z,11.33
2019-02-26T14:59:33.794Z,10.63
2019-02-26T15:01:37.674Z,9.60
2019-02-26T15:03:41.574Z,7.97
2019-02-26T15:05:45.802Z,8.40
2019-02-26T15:07:49.663Z,7.60
2019-02-26T15:09:53.601Z,7.80
2019-02-26T15:11:57.510Z,7.00
2019-02-26T15:14:01.391Z,7.30
2019-02-26T15:16:05.309Z,6.47
2019-02-26T15:18:09.524Z,6.50
2019-02-26T15:20:16.277Z,7.40
2019-02-26T15:22:20.102Z,6.50
2019-02-26T15:24:23.979Z,7.23
2019-02-26T15:26:27.891Z,6.77
2019-02-26T15:28:31.738Z,6.90
2019-02-26T15:30:35.659Z,7.47
2019-02-26T15:32:39.518Z,7.53
2019-02-26T15:34:43.393Z,6.60
2019-02-26T15:36:47.328Z,7.20
2019-02-26T15:38:51.176Z,6.50
2019-02-26T15:40:55.057Z,7.87
2019-02-26T15:42:58.971Z,7.53
2019-02-26T15:45:02.850Z,7.23
2019-02-26T15:47:06.833Z,7.77
2019-02-26T15:49:10.724Z,7.43
2019-02-26T15:51:17.166Z,7.10
2019-02-26T15:53:23.411Z,6.80
2019-02-26T15:55:28.208Z,7.23
2019-02-26T15:57:32.139Z,8.23
2019-02-26T15:59:36.204Z,8.27
2019-02-26T16:01:40.151Z,6.17
2019-02-26T16:03:44.083Z,8.17
2019-02-26T16:05:47.943Z,6.00
2019-02-26T16:07:51.943Z,7.63
2019-02-26T16:09:56.502Z,6.63
2019-02-26T16:12:00.385Z,5.47
2019-02-26T16:14:04.261Z,7.60
2019-02-26T16:16:08.154Z,5.23
2019-02-26T16:18:12.202Z,6.33
2019-02-26T16:20:17.950Z,7.03
2019-02-26T16:22:22.181Z,6.80
2019-02-26T16:24:26.337Z,7.37
2019-02-26T16:26:30.528Z,6.20
2019-02-26T16:28:34.466Z,7.40
2019-02-26T16:30:38.356Z,6.60
2019-02-26T16:32:42.234Z,5.53
2019-02-26T16:34:46.429Z,6.20
2019-02-26T16:36:50.289Z,5.70
2019-02-26T16:38:54.150Z,6.63
2019-02-26T16:40:58.069Z,4.70
2019-02-26T16:43:01.922Z,5.37
2019-02-26T16:45:08.759Z,4.47
2019-02-26T16:47:14.625Z,5.07
2019-02-26T16:49:18.629Z,5.10
2019-02-26T16:51:22.509Z,4.20
2019-02-26T16:53:26.377Z,6.17
2019-02-26T16:55:30.448Z,6.23
2019-02-26T16:57:34.338Z,6.17
2019-02-26T16:59:38.544Z,5.70
2019-02-26T17:01:43.877Z,4.37
2019-02-26T17:03:47.797Z,6.80
2019-02-26T17:05:51.708Z,6.30
2019-02-26T17:07:55.607Z,6.07
2019-02-26T17:09:59.468Z,6.60
2019-02-26T17:12:03.713Z,7.23
2019-02-26T17:14:07.672Z,6.67
2019-02-26T17:16:11.630Z,6.73
2019-02-26T17:18:16.203Z,6.23
2019-02-26T17:20:22.446Z,6.53
2019-02-26T17:22:25.797Z,6.60
2019-02-26T17:24:30.087Z,6.77
2019-02-26T17:26:34.254Z,5.90
2019-02-26T17:28:38.111Z,6.70
2019-02-26T17:30:41.973Z,6.30
2019-02-26T17:32:45.873Z,6.90
2019-02-26T17:34:49.738Z,6.37
2019-02-26T17:36:54.030Z,7.03
2019-02-26T17:38:57.885Z,7.00
2019-02-26T17:41:01.782Z,7.10
2019-02-26T17:43:05.662Z,7.13
2019-02-26T17:45:12.258Z,7.23
2019-02-26T17:47:16.129Z,6.97
2019-02-26T17:49:20.574Z,7.10
2019-02-26T17:51:24.550Z,6.67
2019-02-26T17:53:28.405Z,7.03
2019-02-26T17:55:32.340Z,6.33
2019-02-26T17:57:36.195Z,7.70
2019-02-26T17:59:40.060Z,7.57
2019-02-26T18:01:44.036Z,7.07
2019-02-26T18:03:47.927Z,7.47
2019-02-26T18:05:51.871Z,7.60
2019-02-26T18:07:55.791Z,6.37
2019-02-26T18:09:59.649Z,7.60
2019-02-26T18:12:03.552Z,7.33
2019-02-26T18:14:07.444Z,6.83
2019-02-26T18:16:11.322Z,7.00
2019-02-26T18:18:15.214Z,7.13
2019-02-26T18:20:20.172Z,8.27
2019-02-26T18:22:24.118Z,8.20
2019-02-26T18:24:28.053Z,8.37
2019-02-26T18:26:31.933Z,9.27
2019-02-26T18:28:36.780Z,7.77
2019-02-26T18:30:41.443Z,8.40
2019-02-26T18:32:50.125Z,8.47
2019-02-26T18:34:50.839Z,8.70
2019-02-26T18:36:54.747Z,9.13
2019-02-26T18:38:58.609Z,8.50
2019-02-26T18:41:02.494Z,9.40
2019-02-26T18:43:06.493Z,8.73
2019-02-26T18:45:13.139Z,8.80
2019-02-26T18:47:17.019Z,6.73
2019-02-26T18:49:21.862Z,6.23
2019-02-26T18:51:26.392Z,6.20
2019-02-26T18:53:30.293Z,7.07
2019-02-26T18:55:34.199Z,6.53
2019-02-26T18:57:38.117Z,8.30
2019-02-26T18:59:41.986Z,7.83
2019-02-26T19:01:45.895Z,8.07
2019-02-26T19:03:49.791Z,7.77
2019-02-26T19:05:54.648Z,8.00
2019-02-26T19:07:58.783Z,8.20
2019-02-26T19:10:02.731Z,9.10
2019-02-26T19:12:06.566Z,7.40
2019-02-26T19:14:10.661Z,7.00
2019-02-26T19:16:14.522Z,6.53
2019-02-26T19:18:18.396Z,9.53
2019-02-26T19:20:24.725Z,11.17
2019-02-26T19:22:28.591Z,11.47
2019-02-26T19:24:35.573Z,10.47
2019-02-26T19:26:38.007Z,9.00
2019-02-26T19:28:41.891Z,7.90
2019-02-26T19:30:45.766Z,9.03
2019-02-26T19:32:49.714Z,9.43
2019-02-26T19:34:53.608Z,9.83
2019-02-26T19:36:57.610Z,8.37
2019-02-26T19:39:01.478Z,8.40
2019-02-26T19:41:12.358Z,8.00
2019-02-26T19:43:14.221Z,7.87
2019-02-26T19:45:18.163Z,9.27
2019-02-26T19:47:22.741Z,9.20
2019-02-26T19:49:27.268Z,9.00
2019-02-26T19:51:31.194Z,7.90
2019-02-26T19:53:35.264Z,7.17
2019-02-26T19:55:41.257Z,7.17
2019-02-26T19:57:45.114Z,8.37
2019-02-26T19:59:49.053Z,8.70
2019-02-26T20:01:52.958Z,8.93
2019-02-26T20:03:56.812Z,8.80
2019-02-26T20:06:00.714Z,7.67
2019-02-26T20:08:05.341Z,7.43
2019-02-26T20:10:12.872Z,8.37
2019-02-26T20:12:18.307Z,8.03
2019-02-26T20:14:22.156Z,10.33
2019-02-26T20:16:27.856Z,11.03
2019-02-26T20:18:31.598Z,11.13
2019-02-26T20:20:40.810Z,9.33
2019-02-26T20:22:40.981Z,8.47
2019-02-26T20:24:45.404Z,11.13
2019-02-26T20:26:49.972Z,10.03
2019-02-26T20:28:54.329Z,10.53
2019-02-26T20:30:58.244Z,11.43
2019-02-26T20:33:03.969Z,11.77
2019-02-26T20:35:11.951Z,12.50
2019-02-26T20:37:15.313Z,11.73
2019-02-26T20:39:19.344Z,11.77
2019-02-26T20:41:23.623Z,12.07
2019-02-26T20:43:27.494Z,12.60
2019-02-26T20:45:31.475Z,11.93
2019-02-26T20:47:35.329Z,10.80
2019-02-26T20:49:39.197Z,10.00
2019-02-26T20:51:43.095Z,10.30
2019-02-26T20:53:46.986Z,9.53
2019-02-26T20:55:52.768Z,8.90
2019-02-26T20:57:56.439Z,8.97
2019-02-26T21:00:00.372Z,9.07
2019-02-26T21:02:04.231Z,9.43
2019-02-26T21:04:08.125Z,8.30
2019-02-26T21:06:12.082Z,8.80
2019-02-26T21:08:15.930Z,8.00
2019-02-26T21:10:21.542Z,10.83
2019-02-26T21:12:28.646Z,11.27
2019-02-26T21:14:30.961Z,10.03
2019-02-26T21:16:34.826Z,9.97
2019-02-26T21:18:39.403Z,8.87
2019-02-26T21:20:43.382Z,8.33
2019-02-26T21:22:47.270Z,9.70
2019-02-26T21:24:51.160Z,9.03
2019-02-26T21:26:55.170Z,7.53
2019-02-26T21:28:59.069Z,9.47
2019-02-26T21:31:05.419Z,10.17
2019-02-26T21:33:10.073Z,9.73
2019-02-26T21:35:17.845Z,11.63
2019-02-26T21:37:20.945Z,10.93
2019-02-26T21:39:25.366Z,11.37
2019-02-26T21:41:29.217Z,12.87
2019-02-26T21:43:35.495Z,12.63
2019-02-26T21:45:38.640Z,11.07
2019-02-26T21:47:42.552Z,11.97
2019-02-26T21:49:46.546Z,11.57
2019-02-26T21:51:51.940Z,13.43
2019-02-26T21:53:57.743Z,14.27
2019-02-26T21:56:01.761Z,13.00
2019-02-26T21:58:05.609Z,11.17
2019-02-26T22:00:17.321Z,11.73
2019-02-26T22:02:21.165Z,9.80
2019-02-26T22:04:25.081Z,11.50
2019-02-26T22:06:28.946Z,10.37
2019-02-26T22:08:32.809Z,9.70
2019-02-26T22:10:36.749Z,10.93
2019-02-26T22:12:40.624Z,10.83
2019-02-26T22:14:44.502Z,11.40
2019-02-26T22:16:48.900Z,11.03
2019-02-26T22:18:53.944Z,11.27
2019-02-26T22:20:57.814Z,11.57
2019-02-26T22:23:01.726Z,10.43
2019-02-26T22:25:09.894Z,10.70
2019-02-26T22:27:12.508Z,11.37
2019-02-26T22:29:16.360Z,10.87
2019-02-26T22:31:20.269Z,12.63
2019-02-26T22:33:24.247Z,11.53
2019-02-26T22:35:28.094Z,11.90
2019-02-26T22:37:31.955Z,11.93
2019-02-26T22:39:35.862Z,11.70
2019-02-26T22:41:39.770Z,12.30
2019-02-26T22:43:44.792Z,11.63
2019-02-26T22:45:49.228Z,13.33
2019-02-26T22:47:53.118Z,11.60
2019-02-26T22:49:57.029Z,12.33
2019-02-26T22:52:00.853Z,13.03
2019-02-26T22:54:04.738Z,11.90
2019-02-26T22:56:08.645Z,11.80
2019-02-26T22:58:12.553Z,11.70
2019-02-26T23:00:35.743Z,11.13
2019-02-26T23:02:40.822Z,11.17
2019-02-26T23:04:45.134Z,12.77
2019-02-26T23:06:49.045Z,12.90
2019-02-26T23:08:52.931Z,11.30
2019-02-26T23:10:57.506Z,12.70
2019-02-26T23:13:02.031Z,11.77
2019-02-26T23:15:06.299Z,11.65
2019-02-26T23:17:10.446Z,11.33
2019-02-26T23:19:14.484Z,11.20
2019-02-26T23:21:18.670Z,11.57
2019-02-26T23:23:23.148Z,12.23
2019-02-26T23:25:27.049Z,10.50
2019-02-26T23:27:30.934Z,10.67
2019-02-26T23:29:34.908Z,10.40
2019-02-26T23:31:38.772Z,10.93
2019-02-26T23:33:42.659Z,11.53
2019-02-26T23:35:46.579Z,11.40
2019-02-26T23:37:50.418Z,10.80
2019-02-26T23:39:54.326Z,10.03
2019-02-26T23:41:58.193Z,9.77
2019-02-26T23:44:02.098Z,11.03
2019-02-26T23:46:07.014Z,11.37
2019-02-26T23:48:10.873Z,10.97
2019-02-26T23:50:14.817Z,12.73
2019-02-26T23:52:18.724Z,11.53
2019-02-26T23:54:22.562Z,11.23
2019-02-26T23:56:26.485Z,12.83
2019-02-26T23:58:31.189Z,12.17
